Time;durP1;ratioP1;P1;durP2;ratioP2;P2;SDS_P1;SDS_P2;PMS_P1;PMS_P2;Temp;Humidity;BMP_temperature;BMP_pressure;BME280_temperature;BME280_humidity;BME280_pressure;Samples;Min_cycle;Max_cycle;Signal;HPM_P1;HPM_P2
2023/01/27 00:00:46;;;;;;;44.55;18.77;;;-0.70;89.60;;;;;;5012423;28;20652;-76
2023/01/27 00:03:12;;;;;;;38.72;15.90;;;-0.60;90.00;;;;;;5015777;28;20652;-75
2023/01/27 00:05:38;;;;;;;44.15;16.80;;;-0.50;90.00;;;;;;5021920;28;20727;-76
2023/01/27 00:08:04;;;;;;;40.60;17.40;;;-0.50;89.90;;;;;;5021654;28;20179;-75
2023/01/27 00:10:29;;;;;;;39.33;16.30;;;-0.50;89.70;;;;;;5013009;28;20256;-75
2023/01/27 00:15:39;;;;;;;47.17;17.65;;;-0.60;89.60;;;;;;5029270;28;20600;-76
2023/01/27 00:18:05;;;;;;;36.97;16.63;;;-0.50;89.70;;;;;;5019138;28;20182;-76
2023/01/27 00:26:07;;;;;;;33.38;14.50;;;-0.60;89.00;;;;;;5012108;28;20197;-76
2023/01/27 00:28:37;;;;;;;38.80;16.15;;;-0.70;89.20;;;;;;5009775;28;20182;-74
2023/01/27 00:31:04;;;;;;;33.55;15.48;;;-0.70;89.60;;;;;;5022341;28;20568;-76
2023/01/27 00:33:30;;;;;;;42.58;16.10;;;-0.60;89.70;;;;;;5031649;28;20208;-75
2023/01/27 00:35:57;;;;;;;33.77;15.37;;;-0.60;89.90;;;;;;5030960;28;20194;-75
2023/01/27 00:38:23;;;;;;;32.58;15.48;;;-0.50;89.70;;;;;;5031895;28;20880;-75
2023/01/27 00:41:14;;;;;;;33.47;15.03;;;-0.50;89.50;;;;;;5020486;28;20228;-75
2023/01/27 00:43:34;;;;;;;39.20;16.17;;;-0.50;89.30;;;;;;5028007;28;20185;-74
2023/01/27 00:46:00;;;;;;;32.37;15.20;;;-0.50;89.00;;;;;;5019424;28;20536;-73
2023/01/27 00:48:25;;;;;;;38.60;17.37;;;-0.50;89.20;;;;;;5016551;28;20275;-76
2023/01/27 00:50:51;;;;;;;40.53;14.57;;;-0.40;89.50;;;;;;5022189;28;20975;-75
2023/01/27 00:53:16;;;;;;;33.50;15.53;;;-0.30;89.30;;;;;;5019236;28;20197;-76
2023/01/27 00:55:42;;;;;;;39.17;16.60;;;-0.40;89.00;;;;;;5016960;28;20209;-76
2023/01/27 00:58:07;;;;;;;42.70;17.53;;;-0.40;88.90;;;;;;5022132;28;20265;-75
2023/01/27 01:00:33;;;;;;;40.63;17.30;;;-0.40;89.00;;;;;;5026737;28;20223;-76
2023/01/27 01:02:59;;;;;;;40.10;17.10;;;-0.40;89.20;;;;;;5023834;28;20669;-76
2023/01/27 01:05:24;;;;;;;37.93;16.70;;;-0.30;89.20;;;;;;5017444;28;20653;-75
2023/01/27 01:07:50;;;;;;;39.80;17.60;;;-0.30;88.90;;;;;;5026856;28;20256;-76
2023/01/27 01:10:15;;;;;;;41.13;16.50;;;-0.30;88.70;;;;;;5018835;28;20248;-75
2023/01/27 01:12:41;;;;;;;37.50;16.17;;;-0.30;88.70;;;;;;5021227;28;20196;-76
2023/01/27 01:15:07;;;;;;;33.30;16.23;;;-0.30;88.90;;;;;;5028663;28;20200;-78
2023/01/27 01:17:32;;;;;;;39.00;17.20;;;-0.40;88.70;;;;;;5032253;28;20192;-76
2023/01/27 01:19:58;;;;;;;36.73;15.40;;;-0.40;88.70;;;;;;5015860;28;20531;-76
2023/01/27 01:22:23;;;;;;;36.57;17.30;;;-0.40;88.90;;;;;;5015227;28;20198;-76
2023/01/27 01:24:49;;;;;;;43.33;16.90;;;-0.40;89.00;;;;;;5018764;28;20181;-76
2023/01/27 01:27:14;;;;;;;38.40;16.10;;;-0.40;89.20;;;;;;5018330;28;20532;-76
2023/01/27 01:29:40;;;;;;;40.97;18.03;;;-0.40;89.50;;;;;;5011064;28;20202;-76
2023/01/27 01:32:08;;;;;;;45.63;18.07;;;-0.40;89.30;;;;;;5018527;28;20272;-78
2023/01/27 01:34:34;;;;;;;44.53;18.63;;;-0.40;89.50;;;;;;5026003;28;20313;-77
2023/01/27 01:37:00;;;;;;;37.72;17.35;;;-0.40;89.60;;;;;;5018764;28;20917;-77
2023/01/27 01:39:26;;;;;;;35.07;14.87;;;-0.40;89.60;;;;;;5020553;28;20241;-75
2023/01/27 01:41:51;;;;;;;38.07;15.50;;;-0.40;89.70;;;;;;5024788;28;20181;-76
2023/01/27 01:44:28;;;;;;;36.70;16.13;;;-0.50;89.70;;;;;;5016223;28;20190;-76
2023/01/27 01:46:54;;;;;;;46.30;17.52;;;-0.60;90.00;;;;;;5007576;28;20204;-75
2023/01/27 01:49:26;;;;;;;33.83;14.80;;;-0.50;90.10;;;;;;5013796;28;20296;-76
2023/01/27 01:51:58;;;;;;;37.42;15.18;;;-0.60;90.10;;;;;;5017546;28;20196;-74
2023/01/27 01:54:30;;;;;;;44.38;16.95;;;-0.70;90.20;;;;;;5013369;28;20185;-75
2023/01/27 01:57:18;;;;;;;41.13;15.63;;;-0.60;90.40;;;;;;5016025;28;20190;-75
2023/01/27 01:59:51;;;;;;;45.55;17.27;;;-0.50;90.50;;;;;;5013279;28;20229;-75
2023/01/27 02:02:21;;;;;;;35.85;15.90;;;-0.40;90.20;;;;;;5017609;28;20178;-75
2023/01/27 02:04:55;;;;;;;37.03;15.27;;;-0.40;90.00;;;;;;5013210;28;20664;-75
2023/01/27 02:07:45;;;;;;;33.50;15.70;;;-0.40;89.70;;;;;;5018452;28;20182;-76
2023/01/27 02:10:11;;;;;;;36.35;14.50;;;-0.30;89.50;;;;;;5016075;28;20314;-76
2023/01/27 02:12:37;;;;;;;41.20;16.30;;;-0.30;89.30;;;;;;5015382;28;20707;-75
2023/01/27 02:15:05;;;;;;;38.60;16.75;;;-0.20;89.50;;;;;;5018439;28;20181;-76
2023/01/27 02:17:31;;;;;;;37.90;17.77;;;-0.20;89.50;;;;;;5025422;28;20664;-75
2023/01/27 02:20:18;;;;;;;27.57;11.13;;;-0.10;89.00;;;;;;5017478;28;20220;-75
2023/01/27 02:22:55;;;;;;;30.98;12.43;;;-0.20;88.40;;;;;;5013733;28;20413;-77
2023/01/27 02:25:34;;;;;;;29.50;12.55;;;-0.30;87.40;;;;;;5015778;28;20272;-76
2023/01/27 02:28:05;;;;;;;32.00;11.85;;;-0.40;87.60;;;;;;5022449;28;20193;-75
2023/01/27 02:30:31;;;;;;;35.60;12.30;;;-0.50;87.80;;;;;;5017415;28;20206;-75
2023/01/27 02:32:57;;;;;;;28.13;11.87;;;-0.50;88.10;;;;;;5017980;28;20190;-75
2023/01/27 02:35:35;;;;;;;24.57;11.23;;;-0.50;88.10;;;;;;5022474;28;20479;-75
2023/01/27 02:38:02;;;;;;;27.70;12.43;;;-0.60;88.10;;;;;;5021332;28;20217;-77
2023/01/27 02:40:29;;;;;;;29.95;10.63;;;-0.60;88.30;;;;;;5012117;28;20252;-76
2023/01/27 02:42:56;;;;;;;22.45;10.13;;;-0.60;88.40;;;;;;5013189;28;20240;-75
2023/01/27 02:45:21;;;;;;;30.42;11.07;;;-0.60;88.30;;;;;;5014185;28;20192;-78
2023/01/27 02:47:47;;;;;;;28.40;11.00;;;-0.60;88.40;;;;;;5014136;28;20174;-76
2023/01/27 02:50:12;;;;;;;24.20;10.37;;;-0.50;88.40;;;;;;5022719;28;20254;-76
2023/01/27 02:52:38;;;;;;;24.13;11.60;;;-0.50;88.00;;;;;;5016369;28;20218;-76
2023/01/27 02:55:04;;;;;;;24.13;11.43;;;-0.50;87.80;;;;;;5015032;28;20174;-76
2023/01/27 02:57:29;;;;;;;21.13;9.75;;;-0.50;87.70;;;;;;5012511;28;20198;-76
2023/01/27 02:59:55;;;;;;;33.27;11.87;;;-0.60;87.70;;;;;;5012602;28;20217;-77
2023/01/27 03:02:21;;;;;;;24.80;9.93;;;-0.60;87.70;;;;;;5016578;28;20569;-76
2023/01/27 03:04:50;;;;;;;23.10;10.77;;;-0.40;87.80;;;;;;5022163;28;20220;-76
2023/01/27 03:07:16;;;;;;;23.15;10.82;;;-0.40;87.60;;;;;;5026590;28;20189;-77
2023/01/27 03:09:41;;;;;;;29.03;11.63;;;-0.30;87.60;;;;;;5015963;28;20205;-77
2023/01/27 03:12:19;;;;;;;25.40;10.60;;;-0.40;86.90;;;;;;5032896;28;20189;-75
2023/01/27 03:20:13;;;;;;;26.45;12.02;;;-0.30;86.90;;;;;;5030325;28;20252;-75
2023/01/27 03:22:38;;;;;;;25.77;11.17;;;-0.20;86.80;;;;;;5013711;28;20182;-76
2023/01/27 03:25:05;;;;;;;23.00;10.40;;;-0.20;86.60;;;;;;5016905;28;20228;-76
2023/01/27 03:27:30;;;;;;;29.27;10.13;;;-0.20;86.20;;;;;;5021318;28;20220;-75
2023/01/27 03:29:56;;;;;;;19.53;10.20;;;-0.40;85.90;;;;;;5017215;28;20603;-77
2023/01/27 03:32:24;;;;;;;29.60;11.55;;;-0.40;86.20;;;;;;5016766;28;20178;-76
2023/01/27 03:34:49;;;;;;;26.75;11.63;;;-0.40;86.60;;;;;;5018777;28;20196;-78
2023/01/27 03:48:13;;;;;;;34.28;14.25;;;-0.20;86.90;;;;;;5020141;28;20184;-76
2023/01/27 03:50:42;;;;;;;32.67;14.90;;;-0.10;86.90;;;;;;5021481;28;20577;-76
2023/01/27 03:53:11;;;;;;;31.48;12.55;;;-0.20;86.80;;;;;;5020153;28;20601;-75
2023/01/27 03:55:37;;;;;;;28.17;12.73;;;-0.20;86.80;;;;;;5018093;28;20182;-77
2023/01/27 03:58:17;;;;;;;27.17;13.45;;;-0.10;86.90;;;;;;5017471;28;20201;-75
2023/01/27 04:00:43;;;;;;;29.02;13.82;;;0.00;86.80;;;;;;5025965;28;20205;-75
2023/01/27 04:08:37;;;;;;;34.33;13.15;;;0.00;86.00;;;;;;5016101;28;20189;-75
2023/01/27 04:13:48;;;;;;;27.30;13.10;;;-0.10;86.00;;;;;;5026478;28;20223;-76
2023/01/27 04:16:16;;;;;;;23.63;11.83;;;0.00;86.20;;;;;;5017837;28;20194;-76
2023/01/27 04:18:42;;;;;;;23.63;12.48;;;0.00;85.90;;;;;;5019812;28;20181;-76
2023/01/27 04:21:07;;;;;;;29.77;13.30;;;0.00;85.70;;;;;;5014879;28;20221;-76
2023/01/27 04:23:33;;;;;;;29.40;13.70;;;0.00;85.50;;;;;;5022663;28;20189;-75
2023/01/27 04:25:59;;;;;;;24.53;12.00;;;0.00;85.50;;;;;;5022189;28;20262;-76
2023/01/27 04:28:26;;;;;;;24.57;12.30;;;-0.20;85.00;;;;;;5019228;28;20174;-76
2023/01/27 04:30:52;;;;;;;27.65;13.00;;;-0.20;85.50;;;;;;5017026;28;20197;-76
2023/01/27 04:33:17;;;;;;;28.95;14.32;;;-0.20;85.50;;;;;;5016503;28;20239;-76
2023/01/27 04:35:46;;;;;;;28.77;13.50;;;-0.10;85.60;;;;;;5020066;28;20270;-75
2023/01/27 04:38:12;;;;;;;29.85;12.90;;;-0.10;85.70;;;;;;5014780;28;20181;-76
2023/01/27 04:40:38;;;;;;;38.65;14.10;;;-0.10;85.70;;;;;;5019370;28;20225;-75
2023/01/27 04:43:05;;;;;;;31.33;14.20;;;-0.10;85.60;;;;;;5030817;28;20206;-75
2023/01/27 04:45:31;;;;;;;30.95;13.73;;;-0.20;85.60;;;;;;5019334;28;20182;-75
2023/01/27 04:47:56;;;;;;;32.87;14.40;;;-0.20;86.20;;;;;;5025951;28;20200;-76
2023/01/27 04:50:22;;;;;;;35.43;15.50;;;-0.30;86.30;;;;;;5025192;28;20263;-76
2023/01/27 04:52:48;;;;;;;32.30;12.73;;;-0.40;86.80;;;;;;5016825;28;20579;-77
2023/01/27 04:55:13;;;;;;;37.60;14.87;;;-0.50;87.00;;;;;;5027042;28;20272;-75
2023/01/27 04:57:39;;;;;;;33.93;16.20;;;-0.40;87.60;;;;;;5015743;28;20208;-76
2023/01/27 05:00:05;;;;;;;34.73;14.80;;;-0.30;87.60;;;;;;5022336;28;20225;-78
2023/01/27 05:02:31;;;;;;;32.90;14.23;;;-0.20;87.60;;;;;;5026109;28;20668;-75
2023/01/27 05:04:57;;;;;;;32.30;15.37;;;-0.20;87.00;;;;;;5020620;28;20181;-77
2023/01/27 05:07:22;;;;;;;38.70;16.50;;;-0.20;87.00;;;;;;5022978;28;20483;-76
2023/01/27 05:09:48;;;;;;;41.13;18.17;;;-0.10;87.10;;;;;;5019646;28;20732;-77
2023/01/27 05:12:14;;;;;;;41.33;17.90;;;0.00;87.10;;;;;;5022287;28;20435;-75
2023/01/27 05:14:39;;;;;;;44.60;19.00;;;-0.10;86.90;;;;;;5017057;28;20189;-76
2023/01/27 05:17:05;;;;;;;40.43;17.13;;;-0.20;87.00;;;;;;5020078;28;20189;-75
2023/01/27 05:19:31;;;;;;;45.80;20.23;;;-0.30;87.60;;;;;;5016328;28;20468;-75
2023/01/27 05:21:56;;;;;;;36.90;18.17;;;-0.20;87.80;;;;;;5016405;28;20178;-76
2023/01/27 05:24:22;;;;;;;39.90;18.93;;;-0.30;87.60;;;;;;5014487;28;20512;-75
2023/01/27 05:26:47;;;;;;;42.57;18.83;;;-0.30;87.70;;;;;;5012915;28;20553;-75
2023/01/27 05:29:13;;;;;;;45.83;19.40;;;-0.30;88.00;;;;;;5017871;28;20210;-75
2023/01/27 05:31:38;;;;;;;43.93;20.43;;;-0.30;88.00;;;;;;5015707;28;20196;-75
2023/01/27 05:34:04;;;;;;;49.67;20.03;;;-0.30;87.70;;;;;;5016148;28;20185;-75
2023/01/27 05:36:30;;;;;;;43.23;18.43;;;-0.20;87.70;;;;;;5015834;28;20185;-76
2023/01/27 05:38:57;;;;;;;43.42;18.38;;;-0.30;87.60;;;;;;5017497;28;20178;-73
2023/01/27 05:41:23;;;;;;;46.95;18.25;;;-0.30;87.60;;;;;;5017110;28;20220;-76
2023/01/27 05:44:03;;;;;;;;;;;;;;;;;;;;;
2023/01/27 05:46:30;;;;;;;40.40;18.50;;;-0.30;87.60;;;;;;5037259;28;20504;-76
2023/01/27 05:49:01;;;;;;;40.08;20.27;;;-0.20;87.70;;;;;;5044425;28;20356;-75
2023/01/27 05:51:30;;;;;;;42.40;18.27;;;-0.20;87.70;;;;;;5028178;28;20294;-75
2023/01/27 05:53:55;;;;;;;45.70;17.60;;;-0.30;87.60;;;;;;5025514;28;20212;-73
2023/01/27 05:56:22;;;;;;;43.23;19.93;;;-0.40;87.80;;;;;;5025080;28;20653;-75
2023/01/27 05:58:48;;;;;;;40.63;17.80;;;-0.50;88.10;;;;;;5026248;28;20193;-75
2023/01/27 06:01:23;;;;;;;38.97;17.43;;;-0.40;88.60;;;;;;5029298;28;20217;-75
2023/01/27 06:03:49;;;;;;;41.35;19.55;;;-0.40;88.70;;;;;;5024300;28;20519;-75
2023/01/27 06:06:19;;;;;;;39.53;17.47;;;-0.30;88.90;;;;;;5033713;28;20545;-75
2023/01/27 06:08:46;;;;;;;39.00;18.83;;;-0.40;88.70;;;;;;5023805;28;20421;-77
2023/01/27 06:11:13;;;;;;;41.05;18.35;;;-0.40;88.30;;;;;;5019358;28;20830;-74
2023/01/27 06:13:39;;;;;;;29.83;14.80;;;-0.40;88.30;;;;;;5017996;28;20212;-76
2023/01/27 06:16:12;;;;;;;36.92;17.30;;;-0.40;88.10;;;;;;5016222;28;20173;-75
2023/01/27 06:18:38;;;;;;;36.72;16.60;;;-0.30;88.10;;;;;;5013223;28;20528;-76
2023/01/27 06:21:05;;;;;;;38.33;17.67;;;-0.30;88.10;;;;;;5013652;28;20220;-76
2023/01/27 06:23:31;;;;;;;47.20;18.55;;;-0.30;88.10;;;;;;5017205;28;20455;-76
2023/01/27 06:26:05;;;;;;;37.80;18.40;;;-0.30;88.10;;;;;;5024592;28;20624;-77
2023/01/27 06:28:31;;;;;;;43.03;18.52;;;-0.30;88.10;;;;;;5016799;28;20856;-75
2023/01/27 06:31:08;;;;;;;32.87;15.40;;;-0.20;88.30;;;;;;5016008;28;20234;-76
2023/01/27 06:33:34;;;;;;;40.83;18.88;;;-0.30;87.40;;;;;;5020383;28;20193;-75
2023/01/27 06:36:05;;;;;;;46.80;18.52;;;-0.40;87.80;;;;;;5016710;28;20256;-75
2023/01/27 06:38:32;;;;;;;44.28;17.48;;;-0.40;88.10;;;;;;5015650;28;20268;-75
2023/01/27 06:40:59;;;;;;;40.28;15.50;;;-0.30;88.40;;;;;;5011531;28;20205;-75
2023/01/27 06:43:24;;;;;;;34.35;15.18;;;-0.30;88.30;;;;;;5017827;28;20181;-76
2023/01/27 06:45:51;;;;;;;33.67;16.13;;;-0.30;88.00;;;;;;5022473;28;20192;-75
2023/01/27 06:48:16;;;;;;;35.65;15.68;;;-0.20;88.10;;;;;;5019778;28;20196;-76
2023/01/27 06:50:42;;;;;;;38.70;16.70;;;-0.20;88.00;;;;;;5014720;28;20210;-76
2023/01/27 06:53:08;;;;;;;37.60;15.30;;;-0.20;88.00;;;;;;5015818;28;20328;-77
2023/01/27 06:55:40;;;;;;;39.03;16.38;;;-0.10;88.00;;;;;;5030428;28;20196;-77
2023/01/27 06:58:08;;;;;;;39.20;15.43;;;0.00;87.80;;;;;;5024483;28;20197;-76
2023/01/27 07:00:35;;;;;;;37.60;16.10;;;0.00;87.70;;;;;;5020004;28;20304;-76
2023/01/27 07:03:01;;;;;;;44.33;15.85;;;0.00;87.40;;;;;;5020362;28;20181;-77
2023/01/27 07:05:27;;;;;;;37.47;16.00;;;0.00;87.30;;;;;;5025339;28;20177;-77
2023/01/27 07:07:52;;;;;;;34.67;17.20;;;-0.10;87.10;;;;;;5025619;28;20590;-76
2023/01/27 07:10:20;;;;;;;37.53;14.43;;;0.00;87.30;;;;;;5023377;28;20213;-78
2023/01/27 07:12:46;;;;;;;35.88;16.27;;;0.00;87.30;;;;;;5030546;28;20197;-76
2023/01/27 07:15:12;;;;;;;40.83;16.67;;;0.00;87.30;;;;;;5014924;28;20190;-77
2023/01/27 07:17:38;;;;;;;32.55;16.15;;;-0.10;87.00;;;;;;5029778;28;20181;-76
2023/01/27 07:20:05;;;;;;;33.50;14.40;;;-0.10;87.10;;;;;;5015056;28;20336;-75
2023/01/27 07:22:31;;;;;;;40.53;15.77;;;-0.10;87.30;;;;;;5019852;28;20238;-75
2023/01/27 07:24:56;;;;;;;37.47;15.80;;;0.00;87.60;;;;;;5014952;28;20641;-77
2023/01/27 07:27:23;;;;;;;37.27;14.67;;;0.00;87.30;;;;;;5023358;28;20181;-77
2023/01/27 07:29:49;;;;;;;32.95;14.75;;;0.00;87.00;;;;;;5013560;28;20205;-77
2023/01/27 07:32:14;;;;;;;41.23;15.63;;;-0.20;87.00;;;;;;5012585;28;20189;-77
2023/01/27 07:34:40;;;;;;;34.17;14.90;;;-0.20;87.30;;;;;;5015778;28;20184;-77
2023/01/27 07:37:06;;;;;;;40.07;16.17;;;-0.30;87.60;;;;;;5027594;28;20604;-75
2023/01/27 07:39:32;;;;;;;33.47;15.20;;;-0.30;87.70;;;;;;5014515;28;20521;-76
2023/01/27 07:42:00;;;;;;;32.45;14.27;;;-0.40;88.00;;;;;;5017389;28;20179;-76
2023/01/27 07:44:26;;;;;;;39.85;15.30;;;-0.40;88.30;;;;;;5019028;28;20190;-77
2023/01/27 07:46:52;;;;;;;35.67;15.77;;;-0.40;88.30;;;;;;5012995;28;20182;-77
2023/01/27 07:49:17;;;;;;;31.67;15.07;;;-0.30;88.40;;;;;;5017302;28;20308;-76
2023/01/27 07:51:43;;;;;;;34.20;15.70;;;-0.20;88.40;;;;;;5011540;28;20178;-76
2023/01/27 07:54:09;;;;;;;32.47;14.87;;;-0.20;88.30;;;;;;5019784;28;20703;-77
2023/01/27 07:56:35;;;;;;;33.63;14.23;;;-0.10;88.10;;;;;;5015526;28;20188;-77
2023/01/27 07:59:01;;;;;;;31.73;13.93;;;-0.10;87.70;;;;;;5021187;28;20271;-77
2023/01/27 08:01:27;;;;;;;30.50;14.50;;;-0.10;87.30;;;;;;5015042;28;20214;-77
2023/01/27 08:03:52;;;;;;;37.83;15.23;;;-0.20;87.30;;;;;;5017746;28;20190;-77
2023/01/27 08:06:18;;;;;;;34.00;14.30;;;-0.20;87.40;;;;;;5024398;28;20276;-77
2023/01/27 08:08:44;;;;;;;34.27;14.30;;;-0.20;87.60;;;;;;5026583;28;20198;-76
2023/01/27 08:11:12;;;;;;;27.87;13.07;;;-0.10;87.70;;;;;;5017206;28;20806;-77
2023/01/27 08:13:38;;;;;;;33.83;14.55;;;-0.10;87.00;;;;;;5022815;28;20534;-77
2023/01/27 08:16:06;;;;;;;27.40;12.43;;;-0.10;86.20;;;;;;5010510;28;20600;-76
2023/01/27 08:18:32;;;;;;;32.10;13.65;;;-0.10;86.20;;;;;;5016035;28;20269;-77
2023/01/27 08:21:04;;;;;;;29.77;13.93;;;0.00;86.30;;;;;;5020336;28;20734;-78
2023/01/27 08:23:31;;;;;;;28.70;11.90;;;0.00;86.00;;;;;;5020404;28;20550;-77
2023/01/27 08:25:58;;;;;;;26.42;11.45;;;0.10;86.00;;;;;;5018618;28;20180;-77
2023/01/27 08:28:25;;;;;;;23.88;11.60;;;0.10;85.70;;;;;;5013807;28;20182;-76
2023/01/27 08:30:52;;;;;;;36.03;13.40;;;-0.10;85.30;;;;;;5017527;28;20209;-75
2023/01/27 08:33:19;;;;;;;29.35;12.40;;;-0.10;85.90;;;;;;5020845;28;20272;-76
2023/01/27 08:35:45;;;;;;;27.00;12.10;;;-0.10;86.30;;;;;;5016507;28;20699;-77
2023/01/27 08:38:12;;;;;;;30.80;12.27;;;0.00;86.60;;;;;;5024674;28;20214;-76
2023/01/27 08:40:39;;;;;;;26.70;11.23;;;0.00;86.20;;;;;;5021040;28;20472;-77
2023/01/27 08:43:05;;;;;;;23.35;11.45;;;0.00;86.00;;;;;;5029307;28;20178;-76
2023/01/27 08:45:31;;;;;;;27.65;11.40;;;0.10;85.90;;;;;;5022981;28;20218;-77
2023/01/27 08:47:57;;;;;;;28.80;12.17;;;0.10;85.60;;;;;;5029147;28;20206;-77
2023/01/27 08:50:22;;;;;;;28.47;11.37;;;0.10;85.50;;;;;;5026217;28;20459;-77
2023/01/27 08:52:48;;;;;;;28.10;12.60;;;0.10;84.90;;;;;;5025505;28;20191;-76
2023/01/27 08:55:14;;;;;;;28.67;10.57;;;0.10;84.70;;;;;;5031935;28;20977;-77
2023/01/27 08:57:40;;;;;;;24.87;10.43;;;0.10;84.70;;;;;;5027254;28;20205;-76
2023/01/27 09:00:07;;;;;;;36.60;12.82;;;0.00;84.30;;;;;;5020076;28;20484;-77
2023/01/27 09:02:32;;;;;;;27.50;11.90;;;0.00;84.60;;;;;;5026376;28;20193;-77
2023/01/27 09:04:58;;;;;;;31.00;13.10;;;0.10;84.40;;;;;;5018074;28;20182;-77
2023/01/27 09:07:24;;;;;;;32.90;11.90;;;0.00;84.00;;;;;;5021294;28;20606;-77
2023/01/27 09:09:49;;;;;;;25.93;11.63;;;0.00;84.30;;;;;;5021170;28;20894;-76
2023/01/27 09:12:15;;;;;;;29.80;12.13;;;0.00;84.30;;;;;;5016274;28;20189;-76
2023/01/27 09:14:41;;;;;;;28.85;11.45;;;0.00;83.80;;;;;;5024883;28;20186;-77
2023/01/27 09:17:07;;;;;;;27.93;11.60;;;0.00;83.70;;;;;;5019264;28;20189;-75
2023/01/27 09:19:32;;;;;;;33.90;12.13;;;-0.10;83.60;;;;;;5020590;28;20531;-77
2023/01/27 09:21:58;;;;;;;27.83;12.00;;;-0.10;84.00;;;;;;5017764;28;20174;-75
2023/01/27 09:24:23;;;;;;;28.87;10.93;;;0.00;84.30;;;;;;5021668;28;20687;-77
2023/01/27 09:26:49;;;;;;;26.27;11.30;;;-0.10;83.80;;;;;;5019109;28;20193;-77
2023/01/27 09:29:15;;;;;;;30.87;12.30;;;-0.10;84.10;;;;;;5016742;28;20686;-77
2023/01/27 09:31:40;;;;;;;30.87;12.13;;;-0.10;84.30;;;;;;5019231;28;20208;-77
2023/01/27 09:34:06;;;;;;;30.67;12.80;;;0.00;84.70;;;;;;5032658;28;20259;-74
2023/01/27 09:36:39;;;;;;;27.97;13.20;;;0.00;84.60;;;;;;5019615;28;20185;-77
2023/01/27 09:39:07;;;;;;;29.10;11.02;;;-0.10;84.10;;;;;;5015929;28;20181;-77
2023/01/27 09:41:52;;;;;;;29.75;12.65;;;0.00;84.30;;;;;;5019342;28;20326;-76
2023/01/27 09:44:46;;;;;;;29.08;12.27;;;0.10;84.30;;;;;;5017395;28;20185;-76
2023/01/27 09:47:36;;;;;;;32.40;13.93;;;0.10;83.80;;;;;;5019538;28;20574;-77
2023/01/27 09:50:20;;;;;;;36.15;12.73;;;0.10;83.70;;;;;;5025523;28;20291;-77
2023/01/27 09:53:01;;;;;;;32.67;13.50;;;0.00;83.70;;;;;;5033234;28;20181;-77
2023/01/27 09:55:40;;;;;;;32.55;12.93;;;0.10;84.10;;;;;;5018952;28;20178;-76
2023/01/27 09:58:29;;;;;;;40.58;13.35;;;0.10;84.10;;;;;;5024965;28;20221;-76
2023/01/27 10:01:06;;;;;;;36.75;12.88;;;0.10;84.00;;;;;;5019017;28;20274;-76
2023/01/27 10:03:35;;;;;;;43.83;14.38;;;0.10;84.30;;;;;;5013962;28;20180;-77
2023/01/27 10:06:10;;;;;;;35.80;13.95;;;0.10;84.40;;;;;;5025028;28;20193;-76
2023/01/27 10:09:10;;;;;;;33.97;13.50;;;0.20;84.30;;;;;;5012323;28;20197;-77
2023/01/27 10:11:48;;;;;;;35.58;12.35;;;0.10;84.10;;;;;;5022590;28;20317;-77
2023/01/27 10:14:31;;;;;;;37.80;14.68;;;0.20;84.30;;;;;;5020469;28;20212;-75
2023/01/27 10:17:33;;;;;;;35.13;12.90;;;0.30;84.30;;;;;;5011326;28;20174;-77
2023/01/27 10:20:27;;;;;;;34.95;11.52;;;0.40;83.60;;;;;;5014206;28;20743;-78
2023/01/27 10:23:28;;;;;;;30.25;11.60;;;0.40;82.80;;;;;;5010536;28;20235;-76
2023/01/27 10:26:20;;;;;;;32.95;12.60;;;0.50;82.70;;;;;;5009711;28;20169;-75
2023/01/27 10:28:54;;;;;;;28.95;11.80;;;0.60;82.10;;;;;;5021042;28;20766;-77
2023/01/27 10:31:25;;;;;;;23.20;10.27;;;0.50;81.40;;;;;;5020569;28;20570;-75
2023/01/27 10:33:57;;;;;;;29.83;10.02;;;0.60;81.40;;;;;;5026062;28;20216;-76
2023/01/27 10:36:28;;;;;;;23.73;10.10;;;0.60;80.90;;;;;;5019264;28;20190;-77
2023/01/27 10:39:40;;;;;;;25.33;9.50;;;0.70;80.60;;;;;;5021487;28;20182;-76
2023/01/27 10:42:16;;;;;;;32.70;11.30;;;0.60;80.20;;;;;;5019825;28;20180;-75
2023/01/27 10:44:53;;;;;;;21.50;10.05;;;0.80;80.30;;;;;;5027973;28;20240;-78
2023/01/27 10:47:43;;;;;;;25.42;10.05;;;0.80;80.30;;;;;;5013909;28;20180;-77
2023/01/27 10:50:15;;;;;;;28.70;11.35;;;0.70;80.00;;;;;;5027131;28;20198;-76
2023/01/27 10:53:09;;;;;;;28.45;9.80;;;0.60;80.50;;;;;;5035751;28;20197;-76
2023/01/27 10:55:45;;;;;;;25.30;10.30;;;0.70;80.80;;;;;;5012533;28;20174;-77
2023/01/27 10:58:19;;;;;;;26.50;11.20;;;0.80;80.60;;;;;;5023992;28;20201;-77
2023/01/27 11:00:49;;;;;;;27.92;10.40;;;0.90;80.60;;;;;;5020479;28;20209;-79
2023/01/27 11:03:27;;;;;;;27.60;10.68;;;0.90;80.20;;;;;;5013581;28;20269;-77
2023/01/27 11:06:03;;;;;;;21.52;10.27;;;1.00;79.90;;;;;;5019982;28;20199;-77
2023/01/27 11:08:34;;;;;;;30.92;10.77;;;0.90;79.90;;;;;;5030571;28;20170;-78
2023/01/27 11:13:49;;;;;;;24.05;9.82;;;0.90;80.50;;;;;;5024503;28;20204;-77
2023/01/27 11:16:17;;;;;;;19.70;9.38;;;1.00;80.30;;;;;;5019229;28;20606;-78
2023/01/27 11:18:45;;;;;;;25.48;9.10;;;1.00;80.00;;;;;;5016887;28;20555;-77
2023/01/27 11:21:21;;;;;;;27.63;11.13;;;1.00;79.60;;;;;;5015902;28;20591;-75
2023/01/27 11:23:52;;;;;;;28.17;11.77;;;1.00;79.60;;;;;;5019094;28;20182;-75
2023/01/27 11:26:37;;;;;;;25.73;10.55;;;1.00;79.70;;;;;;5022655;28;20208;-76
2023/01/27 11:29:19;;;;;;;21.10;9.02;;;1.00;79.90;;;;;;5019399;28;20224;-76
2023/01/27 11:32:18;;;;;;;29.15;9.55;;;0.90;79.60;;;;;;5018722;28;20173;-76
2023/01/27 11:35:09;;;;;;;25.67;9.27;;;0.80;80.20;;;;;;5043498;28;20185;-77
2023/01/27 11:37:39;;;;;;;20.08;9.43;;;0.80;80.30;;;;;;5023521;28;20277;-76
2023/01/27 11:40:37;;;;;;;19.25;9.10;;;0.90;80.00;;;;;;5027709;28;20271;-76
2023/01/27 11:43:03;;;;;;;19.05;9.50;;;1.00;80.00;;;;;;5031029;28;20231;-77
2023/01/27 11:45:36;;;;;;;23.27;9.82;;;1.10;79.90;;;;;;5028063;28;20178;-77
2023/01/27 11:48:07;;;;;;;22.77;9.70;;;1.10;79.60;;;;;;5027835;28;20184;-76
2023/01/27 11:50:34;;;;;;;23.13;10.38;;;1.10;79.20;;;;;;5034328;28;20202;-77
2023/01/27 11:53:15;;;;;;;23.88;10.02;;;1.10;79.60;;;;;;5036238;28;20181;-77
2023/01/27 11:56:09;;;;;;;25.42;10.20;;;1.10;79.70;;;;;;5025533;28;20181;-76
2023/01/27 11:58:46;;;;;;;23.33;9.63;;;1.20;79.90;;;;;;5024213;28;20633;-77
2023/01/27 12:01:31;;;;;;;20.27;8.55;;;1.30;79.60;;;;;;5025174;28;20213;-77
2023/01/27 12:04:20;;;;;;;25.40;10.30;;;1.20;79.00;;;;;;5028969;28;20180;-77
2023/01/27 12:06:51;;;;;;;23.75;8.80;;;1.20;79.00;;;;;;5027005;28;20655;-77
2023/01/27 12:09:33;;;;;;;22.00;9.27;;;1.20;79.30;;;;;;5033817;28;20206;-77
2023/01/27 12:12:08;;;;;;;23.50;9.30;;;1.20;79.50;;;;;;5021277;28;20721;-77
2023/01/27 12:14:33;;;;;;;25.95;9.55;;;1.20;79.70;;;;;;5008278;28;20189;-77
2023/01/27 12:17:02;;;;;;;21.77;9.67;;;1.20;79.70;;;;;;5020947;28;20252;-74
2023/01/27 12:19:34;;;;;;;20.50;9.65;;;1.20;79.60;;;;;;5024216;28;20202;-78
2023/01/27 12:22:21;;;;;;;25.42;9.20;;;1.10;79.70;;;;;;5025129;28;20730;-77
2023/01/27 12:24:51;;;;;;;19.50;8.70;;;1.10;79.90;;;;;;5015694;28;20178;-76
2023/01/27 12:27:23;;;;;;;25.50;9.48;;;1.00;80.00;;;;;;5018304;28;20201;-77
2023/01/27 12:29:54;;;;;;;28.88;10.82;;;1.10;80.00;;;;;;5020100;28;20213;-76
2023/01/27 12:32:24;;;;;;;23.45;10.68;;;1.20;80.00;;;;;;5025323;28;20189;-76
2023/01/27 12:34:55;;;;;;;29.45;11.15;;;1.20;80.00;;;;;;5019643;28;20830;-77
2023/01/27 12:37:29;;;;;;;24.13;9.85;;;1.10;80.20;;;;;;5023230;28;20186;-75
2023/01/27 12:40:07;;;;;;;29.58;12.35;;;1.10;80.30;;;;;;5019821;28;20213;-76
2023/01/27 12:42:39;;;;;;;27.17;10.50;;;1.00;80.50;;;;;;5028448;28;20212;-76
2023/01/27 12:45:17;;;;;;;25.50;10.45;;;0.90;80.80;;;;;;5026994;28;20189;-77
2023/01/27 12:48:01;;;;;;;27.33;12.05;;;1.00;81.20;;;;;;5009483;28;20232;-76
2023/01/27 12:50:33;;;;;;;30.02;11.25;;;1.00;81.10;;;;;;5019582;28;20211;-77
2023/01/27 12:53:14;;;;;;;27.08;12.00;;;1.10;81.20;;;;;;5024163;28;20189;-77
2023/01/27 12:55:46;;;;;;;33.88;11.90;;;1.10;80.80;;;;;;5014208;28;20193;-76
2023/01/27 12:58:34;;;;;;;33.10;11.90;;;1.10;80.80;;;;;;5034804;28;20201;-75
2023/01/27 13:01:05;;;;;;;26.98;10.98;;;1.20;81.10;;;;;;5033040;28;20204;-77
2023/01/27 13:03:40;;;;;;;28.48;11.65;;;1.10;80.60;;;;;;5030879;28;20189;-77
2023/01/27 13:06:06;;;;;;;25.17;10.57;;;1.10;80.90;;;;;;5027669;28;20257;-76
2023/01/27 13:08:36;;;;;;;34.88;13.80;;;1.00;81.10;;;;;;5034197;28;20235;-75
2023/01/27 13:11:03;;;;;;;27.88;11.35;;;0.90;81.80;;;;;;5038891;28;20210;-74
2023/01/27 13:13:30;;;;;;;30.13;12.15;;;0.90;82.40;;;;;;5028023;28;20189;-74
2023/01/27 13:16:01;;;;;;;22.63;11.18;;;0.90;82.10;;;;;;5029927;28;20243;-77
2023/01/27 13:18:32;;;;;;;29.10;11.82;;;0.80;82.40;;;;;;5018176;28;20543;-75
2023/01/27 13:21:11;;;;;;;29.08;11.50;;;0.80;82.50;;;;;;5016623;28;20212;-76
2023/01/27 13:23:39;;;;;;;36.80;12.45;;;0.70;83.00;;;;;;5027268;28;20177;-76